Bryant, Illinois
Current Conditions -  °F | °C
As of 2:54 AM on Monday 24 Nov 2014 (Local Time) from KPIA Reporting Station
Light Rain Light Rain  
Wind Chill: 40°   Ceiling: 600
Heat Index: 45°   Visibility: 5mi
Dew Point: 41°   Wind: 10mph
Humidity: 86%   Direction: 300°WNW
Pressure: 29.16"   Gusts: NA
Location:  40.47°N, 90.09°W
Report Text: KPIA 240854Z 30009KT 5SM -RA BR OVC006 07/05 A2916 RMK AO2 RAB00 SLP877 P0001 60009 T00720050 53003
Loading
Personal Weather Stations






























Interactive Weather Map New forecast layout! Learn more

10-Day Weather Forecast

Advertisements
Track Severe Weather on mobile